sensor_id;sensor_type;location;lat;lon;timestamp;P1;durP1;ratioP1;P2;durP2;ratioP2
11709;SDS011;5911;51.036;6.972;2023-05-10T00:00:28;8.00;;;7.20;;
11709;SDS011;5911;51.036;6.972;2023-05-10T00:02:56;8.80;;;7.90;;
11709;SDS011;5911;51.036;6.972;2023-05-10T00:05:25;9.63;;;8.73;;
11709;SDS011;5911;51.036;6.972;2023-05-10T00:07:53;10.33;;;8.03;;
11709;SDS011;5911;51.036;6.972;2023-05-10T00:10:21;8.87;;;7.97;;
11709;SDS011;5911;51.036;6.972;2023-05-10T00:12:49;10.37;;;9.37;;
11709;SDS011;5911;51.036;6.972;2023-05-10T00:15:17;10.67;;;9.57;;
11709;SDS011;5911;51.036;6.972;2023-05-10T00:17:45;9.97;;;8.87;;
11709;SDS011;5911;51.036;6.972;2023-05-10T00:20:12;9.43;;;8.53;;
11709;SDS011;5911;51.036;6.972;2023-05-10T00:22:42;8.97;;;8.17;;
11709;SDS011;5911;51.036;6.972;2023-05-10T00:25:10;9.53;;;8.53;;
11709;SDS011;5911;51.036;6.972;2023-05-10T00:27:37;9.77;;;8.60;;
11709;SDS011;5911;51.036;6.972;2023-05-10T00:30:06;9.40;;;8.37;;
11709;SDS011;5911;51.036;6.972;2023-05-10T00:32:34;11.17;;;9.43;;
11709;SDS011;5911;51.036;6.972;2023-05-10T00:35:03;10.73;;;9.67;;
11709;SDS011;5911;51.036;6.972;2023-05-10T00:37:32;11.83;;;9.87;;
11709;SDS011;5911;51.036;6.972;2023-05-10T00:40:01;10.03;;;9.00;;
11709;SDS011;5911;51.036;6.972;2023-05-10T00:42:29;12.63;;;9.80;;
11709;SDS011;5911;51.036;6.972;2023-05-10T00:44:57;10.80;;;9.70;;
11709;SDS011;5911;51.036;6.972;2023-05-10T00:47:25;13.37;;;10.17;;
11709;SDS011;5911;51.036;6.972;2023-05-10T00:49:53;12.13;;;10.27;;
11709;SDS011;5911;51.036;6.972;2023-05-10T00:52:24;10.97;;;9.50;;
11709;SDS011;5911;51.036;6.972;2023-05-10T00:54:52;10.65;;;9.35;;
11709;SDS011;5911;51.036;6.972;2023-05-10T00:57:22;10.63;;;9.63;;
11709;SDS011;5911;51.036;6.972;2023-05-10T00:59:51;10.73;;;9.60;;
11709;SDS011;5911;51.036;6.972;2023-05-10T01:02:19;10.77;;;9.47;;
11709;SDS011;5911;51.036;6.972;2023-05-10T01:04:47;11.70;;;10.57;;
11709;SDS011;5911;51.036;6.972;2023-05-10T01:07:16;10.60;;;9.50;;
11709;SDS011;5911;51.036;6.972;2023-05-10T01:09:44;10.63;;;9.63;;
11709;SDS011;5911;51.036;6.972;2023-05-10T01:12:11;11.07;;;9.95;;
11709;SDS011;5911;51.036;6.972;2023-05-10T01:14:43;11.10;;;9.90;;
11709;SDS011;5911;51.036;6.972;2023-05-10T01:17:14;11.50;;;9.85;;
11709;SDS011;5911;51.036;6.972;2023-05-10T01:19:43;11.80;;;10.57;;
11709;SDS011;5911;51.036;6.972;2023-05-10T01:22:14;12.07;;;9.70;;
11709;SDS011;5911;51.036;6.972;2023-05-10T01:25:08;10.97;;;9.80;;
11709;SDS011;5911;51.036;6.972;2023-05-10T01:30:55;16.97;;;9.50;;
11709;SDS011;5911;51.036;6.972;2023-05-10T01:33:48;11.50;;;10.30;;
11709;SDS011;5911;51.036;6.972;2023-05-10T01:36:22;12.00;;;10.13;;
11709;SDS011;5911;51.036;6.972;2023-05-10T01:38:57;10.07;;;9.03;;
11709;SDS011;5911;51.036;6.972;2023-05-10T01:41:31;10.70;;;9.37;;
11709;SDS011;5911;51.036;6.972;2023-05-10T01:44:06;11.20;;;8.50;;
11709;SDS011;5911;51.036;6.972;2023-05-10T01:46:41;9.60;;;7.57;;
11709;SDS011;5911;51.036;6.972;2023-05-10T01:49:13;8.30;;;7.07;;
11709;SDS011;5911;51.036;6.972;2023-05-10T01:51:47;8.63;;;7.83;;
11709;SDS011;5911;51.036;6.972;2023-05-10T01:54:19;8.80;;;7.93;;
11709;SDS011;5911;51.036;6.972;2023-05-10T01:56:50;8.50;;;7.70;;
11709;SDS011;5911;51.036;6.972;2023-05-10T01:59:23;8.63;;;7.73;;
11709;SDS011;5911;51.036;6.972;2023-05-10T02:01:57;11.63;;;8.37;;
11709;SDS011;5911;51.036;6.972;2023-05-10T02:04:27;10.50;;;8.37;;
11709;SDS011;5911;51.036;6.972;2023-05-10T02:06:56;9.93;;;8.38;;
11709;SDS011;5911;51.036;6.972;2023-05-10T02:09:25;8.48;;;7.40;;
11709;SDS011;5911;51.036;6.972;2023-05-10T02:11:55;7.80;;;6.63;;
11709;SDS011;5911;51.036;6.972;2023-05-10T02:14:26;7.32;;;5.05;;
11709;SDS011;5911;51.036;6.972;2023-05-10T02:16:54;6.77;;;4.77;;
11709;SDS011;5911;51.036;6.972;2023-05-10T02:19:25;6.00;;;4.65;;
11709;SDS011;5911;51.036;6.972;2023-05-10T02:21:56;5.73;;;4.10;;
11709;SDS011;5911;51.036;6.972;2023-05-10T02:24:26;5.73;;;3.50;;
11709;SDS011;5911;51.036;6.972;2023-05-10T02:26:55;5.15;;;3.55;;
11709;SDS011;5911;51.036;6.972;2023-05-10T02:29:24;6.75;;;3.53;;
11709;SDS011;5911;51.036;6.972;2023-05-10T02:31:54;4.97;;;3.57;;
11709;SDS011;5911;51.036;6.972;2023-05-10T02:34:25;7.38;;;3.85;;
11709;SDS011;5911;51.036;6.972;2023-05-10T02:36:55;4.90;;;3.83;;
11709;SDS011;5911;51.036;6.972;2023-05-10T02:39:24;4.40;;;3.80;;
11709;SDS011;5911;51.036;6.972;2023-05-10T02:41:56;5.43;;;3.92;;
11709;SDS011;5911;51.036;6.972;2023-05-10T02:44:24;5.73;;;4.60;;
11709;SDS011;5911;51.036;6.972;2023-05-10T02:46:57;10.20;;;5.70;;
11709;SDS011;5911;51.036;6.972;2023-05-10T02:49:27;8.98;;;8.00;;
11709;SDS011;5911;51.036;6.972;2023-05-10T02:51:56;8.63;;;7.23;;
11709;SDS011;5911;51.036;6.972;2023-05-10T02:54:29;7.80;;;6.68;;
11709;SDS011;5911;51.036;6.972;2023-05-10T02:57:00;7.00;;;6.27;;
11709;SDS011;5911;51.036;6.972;2023-05-10T02:59:32;7.90;;;6.53;;
11709;SDS011;5911;51.036;6.972;2023-05-10T03:02:00;6.77;;;6.10;;
11709;SDS011;5911;51.036;6.972;2023-05-10T03:04:28;7.07;;;6.38;;
11709;SDS011;5911;51.036;6.972;2023-05-10T03:06:58;7.05;;;5.70;;
11709;SDS011;5911;51.036;6.972;2023-05-10T03:09:26;7.47;;;6.13;;
11709;SDS011;5911;51.036;6.972;2023-05-10T03:11:56;5.78;;;5.18;;
11709;SDS011;5911;51.036;6.972;2023-05-10T03:14:42;6.68;;;5.28;;
11709;SDS011;5911;51.036;6.972;2023-05-10T03:17:19;6.87;;;6.17;;
11709;SDS011;5911;51.036;6.972;2023-05-10T03:19:52;6.25;;;5.50;;
11709;SDS011;5911;51.036;6.972;2023-05-10T03:22:25;7.10;;;5.50;;
11709;SDS011;5911;51.036;6.972;2023-05-10T03:24:58;8.38;;;5.60;;
11709;SDS011;5911;51.036;6.972;2023-05-10T03:27:33;6.63;;;5.93;;
11709;SDS011;5911;51.036;6.972;2023-05-10T03:30:04;8.95;;;6.28;;
11709;SDS011;5911;51.036;6.972;2023-05-10T03:32:35;6.90;;;6.10;;
11709;SDS011;5911;51.036;6.972;2023-05-10T03:35:05;8.83;;;6.57;;
11709;SDS011;5911;51.036;6.972;2023-05-10T03:37:36;7.03;;;6.32;;
11709;SDS011;5911;51.036;6.972;2023-05-10T03:40:06;8.60;;;7.03;;
11709;SDS011;5911;51.036;6.972;2023-05-10T03:42:39;7.10;;;6.43;;
11709;SDS011;5911;51.036;6.972;2023-05-10T03:45:07;9.90;;;7.40;;
11709;SDS011;5911;51.036;6.972;2023-05-10T03:47:36;9.20;;;7.57;;
11709;SDS011;5911;51.036;6.972;2023-05-10T03:50:04;10.43;;;7.72;;
11709;SDS011;5911;51.036;6.972;2023-05-10T03:52:33;9.50;;;7.35;;
11709;SDS011;5911;51.036;6.972;2023-05-10T03:55:02;8.35;;;7.03;;
11709;SDS011;5911;51.036;6.972;2023-05-10T03:57:30;9.90;;;7.95;;
11709;SDS011;5911;51.036;6.972;2023-05-10T03:59:59;8.40;;;7.50;;
11709;SDS011;5911;51.036;6.972;2023-05-10T04:02:27;10.30;;;7.90;;
11709;SDS011;5911;51.036;6.972;2023-05-10T04:04:56;8.57;;;7.50;;
11709;SDS011;5911;51.036;6.972;2023-05-10T04:07:24;11.13;;;7.75;;
11709;SDS011;5911;51.036;6.972;2023-05-10T04:09:52;8.93;;;8.03;;
11709;SDS011;5911;51.036;6.972;2023-05-10T04:12:22;9.13;;;7.40;;
11709;SDS011;5911;51.036;6.972;2023-05-10T04:14:53;14.93;;;8.37;;
11709;SDS011;5911;51.036;6.972;2023-05-10T04:17:21;9.48;;;8.45;;
11709;SDS011;5911;51.036;6.972;2023-05-10T04:19:49;9.00;;;7.82;;
11709;SDS011;5911;51.036;6.972;2023-05-10T04:22:19;10.23;;;8.70;;
11709;SDS011;5911;51.036;6.972;2023-05-10T04:24:48;14.70;;;8.77;;
11709;SDS011;5911;51.036;6.972;2023-05-10T04:27:16;9.47;;;8.47;;
11709;SDS011;5911;51.036;6.972;2023-05-10T04:29:45;11.40;;;8.80;;
11709;SDS011;5911;51.036;6.972;2023-05-10T04:32:13;14.30;;;9.23;;
11709;SDS011;5911;51.036;6.972;2023-05-10T04:35:27;12.90;;;10.80;;
11709;SDS011;5911;51.036;6.972;2023-05-10T04:38:26;17.43;;;12.33;;
11709;SDS011;5911;51.036;6.972;2023-05-10T04:40:54;15.43;;;12.60;;
11709;SDS011;5911;51.036;6.972;2023-05-10T04:43:30;15.33;;;12.07;;
11709;SDS011;5911;51.036;6.972;2023-05-10T04:45:59;16.67;;;13.73;;
11709;SDS011;5911;51.036;6.972;2023-05-10T04:48:27;16.97;;;13.30;;
11709;SDS011;5911;51.036;6.972;2023-05-10T04:50:55;16.43;;;13.37;;
11709;SDS011;5911;51.036;6.972;2023-05-10T04:53:23;17.23;;;13.67;;
11709;SDS011;5911;51.036;6.972;2023-05-10T04:55:51;17.77;;;13.17;;
11709;SDS011;5911;51.036;6.972;2023-05-10T04:58:19;16.33;;;13.00;;
11709;SDS011;5911;51.036;6.972;2023-05-10T05:00:47;14.80;;;12.50;;
11709;SDS011;5911;51.036;6.972;2023-05-10T05:03:16;17.33;;;12.77;;
11709;SDS011;5911;51.036;6.972;2023-05-10T05:05:44;19.07;;;13.67;;
11709;SDS011;5911;51.036;6.972;2023-05-10T05:08:12;16.77;;;13.27;;
11709;SDS011;5911;51.036;6.972;2023-05-10T05:10:40;16.13;;;12.90;;
11709;SDS011;5911;51.036;6.972;2023-05-10T05:13:08;14.63;;;12.97;;
11709;SDS011;5911;51.036;6.972;2023-05-10T05:15:35;15.73;;;12.70;;
11709;SDS011;5911;51.036;6.972;2023-05-10T05:18:03;13.67;;;12.27;;
11709;SDS011;5911;51.036;6.972;2023-05-10T05:20:33;15.47;;;12.57;;
11709;SDS011;5911;51.036;6.972;2023-05-10T05:23:01;16.50;;;11.93;;
11709;SDS011;5911;51.036;6.972;2023-05-10T05:25:29;15.23;;;12.27;;
11709;SDS011;5911;51.036;6.972;2023-05-10T05:27:56;17.03;;;12.23;;
11709;SDS011;5911;51.036;6.972;2023-05-10T05:30:24;14.03;;;11.90;;
11709;SDS011;5911;51.036;6.972;2023-05-10T05:32:52;14.03;;;12.20;;
11709;SDS011;5911;51.036;6.972;2023-05-10T05:35:20;15.10;;;10.97;;
11709;SDS011;5911;51.036;6.972;2023-05-10T05:37:49;14.90;;;11.30;;
11709;SDS011;5911;51.036;6.972;2023-05-10T05:40:17;14.87;;;10.63;;
11709;SDS011;5911;51.036;6.972;2023-05-10T05:42:44;13.07;;;11.13;;
11709;SDS011;5911;51.036;6.972;2023-05-10T05:45:12;15.97;;;12.00;;
11709;SDS011;5911;51.036;6.972;2023-05-10T05:47:40;17.50;;;12.00;;
11709;SDS011;5911;51.036;6.972;2023-05-10T05:50:09;16.47;;;11.93;;
11709;SDS011;5911;51.036;6.972;2023-05-10T05:52:37;16.60;;;12.33;;
11709;SDS011;5911;51.036;6.972;2023-05-10T05:55:07;16.77;;;12.30;;
11709;SDS011;5911;51.036;6.972;2023-05-10T05:57:35;15.47;;;12.20;;
11709;SDS011;5911;51.036;6.972;2023-05-10T06:00:03;19.13;;;12.63;;
11709;SDS011;5911;51.036;6.972;2023-05-10T06:02:37;17.10;;;13.00;;
11709;SDS011;5911;51.036;6.972;2023-05-10T06:05:06;14.47;;;11.67;;
11709;SDS011;5911;51.036;6.972;2023-05-10T06:07:34;15.93;;;12.47;;
11709;SDS011;5911;51.036;6.972;2023-05-10T06:10:02;16.43;;;13.07;;
11709;SDS011;5911;51.036;6.972;2023-05-10T06:12:33;20.17;;;13.00;;
11709;SDS011;5911;51.036;6.972;2023-05-10T06:15:01;19.40;;;12.47;;
11709;SDS011;5911;51.036;6.972;2023-05-10T06:17:29;15.40;;;11.93;;
11709;SDS011;5911;51.036;6.972;2023-05-10T06:19:57;20.00;;;12.50;;
11709;SDS011;5911;51.036;6.972;2023-05-10T06:22:25;17.40;;;12.97;;
11709;SDS011;5911;51.036;6.972;2023-05-10T06:24:52;15.50;;;11.93;;
11709;SDS011;5911;51.036;6.972;2023-05-10T06:27:20;18.07;;;12.53;;
11709;SDS011;5911;51.036;6.972;2023-05-10T06:29:49;16.37;;;12.73;;
11709;SDS011;5911;51.036;6.972;2023-05-10T06:32:27;18.13;;;13.40;;
11709;SDS011;5911;51.036;6.972;2023-05-10T06:34:55;15.93;;;12.27;;
11709;SDS011;5911;51.036;6.972;2023-05-10T06:37:23;16.87;;;12.37;;
11709;SDS011;5911;51.036;6.972;2023-05-10T06:39:51;18.87;;;11.97;;
11709;SDS011;5911;51.036;6.972;2023-05-10T06:42:18;18.03;;;11.90;;
11709;SDS011;5911;51.036;6.972;2023-05-10T06:44:46;18.73;;;12.40;;
11709;SDS011;5911;51.036;6.972;2023-05-10T06:47:15;16.23;;;12.40;;
11709;SDS011;5911;51.036;6.972;2023-05-10T06:49:43;18.60;;;12.53;;
11709;SDS011;5911;51.036;6.972;2023-05-10T06:52:11;19.50;;;12.90;;
11709;SDS011;5911;51.036;6.972;2023-05-10T06:54:39;17.47;;;12.90;;
11709;SDS011;5911;51.036;6.972;2023-05-10T06:57:06;19.57;;;13.23;;
11709;SDS011;5911;51.036;6.972;2023-05-10T06:59:54;19.37;;;14.10;;
11709;SDS011;5911;51.036;6.972;2023-05-10T07:02:24;20.03;;;13.63;;
11709;SDS011;5911;51.036;6.972;2023-05-10T07:04:52;18.10;;;14.13;;
11709;SDS011;5911;51.036;6.972;2023-05-10T07:07:20;21.20;;;13.93;;
11709;SDS011;5911;51.036;6.972;2023-05-10T07:09:48;25.07;;;14.73;;
11709;SDS011;5911;51.036;6.972;2023-05-10T07:12:17;21.00;;;14.27;;
11709;SDS011;5911;51.036;6.972;2023-05-10T07:14:47;22.13;;;14.73;;
11709;SDS011;5911;51.036;6.972;2023-05-10T07:17:21;21.90;;;14.07;;
11709;SDS011;5911;51.036;6.972;2023-05-10T07:19:50;21.23;;;13.67;;
11709;SDS011;5911;51.036;6.972;2023-05-10T07:22:18;17.67;;;13.33;;
11709;SDS011;5911;51.036;6.972;2023-05-10T07:24:46;19.27;;;12.57;;
11709;SDS011;5911;51.036;6.972;2023-05-10T07:27:13;16.67;;;12.73;;
11709;SDS011;5911;51.036;6.972;2023-05-10T07:29:41;16.93;;;12.33;;
11709;SDS011;5911;51.036;6.972;2023-05-10T07:32:09;19.03;;;13.40;;
11709;SDS011;5911;51.036;6.972;2023-05-10T07:34:37;19.13;;;13.83;;
11709;SDS011;5911;51.036;6.972;2023-05-10T07:37:06;17.20;;;13.17;;
11709;SDS011;5911;51.036;6.972;2023-05-10T07:39:34;18.63;;;12.83;;
11709;SDS011;5911;51.036;6.972;2023-05-10T07:42:01;15.90;;;12.33;;
11709;SDS011;5911;51.036;6.972;2023-05-10T07:44:30;16.70;;;12.93;;
11709;SDS011;5911;51.036;6.972;2023-05-10T07:46:57;19.70;;;13.77;;
11709;SDS011;5911;51.036;6.972;2023-05-10T07:49:25;16.37;;;13.73;;
11709;SDS011;5911;51.036;6.972;2023-05-10T07:51:53;21.33;;;13.53;;
11709;SDS011;5911;51.036;6.972;2023-05-10T07:54:22;19.80;;;13.37;;
11709;SDS011;5911;51.036;6.972;2023-05-10T07:56:50;18.57;;;13.00;;
11709;SDS011;5911;51.036;6.972;2023-05-10T07:59:18;19.87;;;13.97;;
11709;SDS011;5911;51.036;6.972;2023-05-10T08:01:46;20.57;;;13.73;;
11709;SDS011;5911;51.036;6.972;2023-05-10T08:04:14;19.30;;;14.30;;
11709;SDS011;5911;51.036;6.972;2023-05-10T08:06:42;19.00;;;13.23;;
11709;SDS011;5911;51.036;6.972;2023-05-10T08:09:10;18.93;;;13.77;;
11709;SDS011;5911;51.036;6.972;2023-05-10T08:11:39;18.30;;;15.20;;
11709;SDS011;5911;51.036;6.972;2023-05-10T08:14:07;21.90;;;14.00;;
11709;SDS011;5911;51.036;6.972;2023-05-10T08:16:35;19.50;;;14.57;;
11709;SDS011;5911;51.036;6.972;2023-05-10T08:19:03;21.87;;;13.70;;
11709;SDS011;5911;51.036;6.972;2023-05-10T08:21:31;18.90;;;12.80;;
11709;SDS011;5911;51.036;6.972;2023-05-10T08:23:59;17.07;;;13.10;;
11709;SDS011;5911;51.036;6.972;2023-05-10T08:26:27;15.23;;;12.27;;
11709;SDS011;5911;51.036;6.972;2023-05-10T08:28:56;19.47;;;13.23;;
11709;SDS011;5911;51.036;6.972;2023-05-10T08:31:24;17.57;;;12.73;;
11709;SDS011;5911;51.036;6.972;2023-05-10T08:33:52;19.00;;;12.80;;
11709;SDS011;5911;51.036;6.972;2023-05-10T08:36:19;15.70;;;11.77;;
11709;SDS011;5911;51.036;6.972;2023-05-10T08:38:50;14.40;;;10.27;;
11709;SDS011;5911;51.036;6.972;2023-05-10T08:41:19;17.83;;;11.30;;
11709;SDS011;5911;51.036;6.972;2023-05-10T08:43:48;15.60;;;10.67;;
11709;SDS011;5911;51.036;6.972;2023-05-10T08:46:19;16.30;;;11.17;;
11709;SDS011;5911;51.036;6.972;2023-05-10T08:48:48;16.67;;;12.17;;
11709;SDS011;5911;51.036;6.972;2023-05-10T08:51:18;21.90;;;14.13;;
11709;SDS011;5911;51.036;6.972;2023-05-10T08:53:47;14.57;;;12.10;;
11709;SDS011;5911;51.036;6.972;2023-05-10T08:56:15;17.63;;;13.70;;
11709;SDS011;5911;51.036;6.972;2023-05-10T08:58:44;20.00;;;14.30;;
11709;SDS011;5911;51.036;6.972;2023-05-10T09:01:12;20.23;;;13.50;;
11709;SDS011;5911;51.036;6.972;2023-05-10T09:03:44;18.87;;;13.97;;
11709;SDS011;5911;51.036;6.972;2023-05-10T09:06:13;22.33;;;14.70;;
11709;SDS011;5911;51.036;6.972;2023-05-10T09:08:41;21.80;;;16.20;;
11709;SDS011;5911;51.036;6.972;2023-05-10T09:11:11;23.60;;;15.23;;
11709;SDS011;5911;51.036;6.972;2023-05-10T09:13:39;25.03;;;16.20;;
11709;SDS011;5911;51.036;6.972;2023-05-10T09:16:08;25.23;;;16.77;;
11709;SDS011;5911;51.036;6.972;2023-05-10T09:18:49;30.57;;;17.90;;
11709;SDS011;5911;51.036;6.972;2023-05-10T09:21:17;24.87;;;16.97;;
11709;SDS011;5911;51.036;6.972;2023-05-10T09:23:46;26.67;;;16.87;;
11709;SDS011;5911;51.036;6.972;2023-05-10T09:26:16;26.60;;;17.53;;
11709;SDS011;5911;51.036;6.972;2023-05-10T09:28:51;24.23;;;16.50;;
11709;SDS011;5911;51.036;6.972;2023-05-10T09:31:20;25.97;;;17.40;;
11709;SDS011;5911;51.036;6.972;2023-05-10T09:33:50;27.87;;;18.40;;
11709;SDS011;5911;51.036;6.972;2023-05-10T09:36:18;26.97;;;17.50;;
11709;SDS011;5911;51.036;6.972;2023-05-10T09:38:46;28.33;;;18.70;;
11709;SDS011;5911;51.036;6.972;2023-05-10T09:41:15;28.40;;;19.53;;
11709;SDS011;5911;51.036;6.972;2023-05-10T09:43:44;28.17;;;19.27;;
11709;SDS011;5911;51.036;6.972;2023-05-10T09:46:12;31.90;;;20.67;;
11709;SDS011;5911;51.036;6.972;2023-05-10T09:48:41;31.27;;;20.37;;
11709;SDS011;5911;51.036;6.972;2023-05-10T09:51:16;26.23;;;17.30;;
11709;SDS011;5911;51.036;6.972;2023-05-10T09:53:46;22.57;;;16.07;;
11709;SDS011;5911;51.036;6.972;2023-05-10T09:59:02;27.37;;;18.60;;
11709;SDS011;5911;51.036;6.972;2023-05-10T10:01:30;29.03;;;19.20;;
11709;SDS011;5911;51.036;6.972;2023-05-10T10:03:58;27.63;;;18.57;;
11709;SDS011;5911;51.036;6.972;2023-05-10T10:06:27;30.37;;;18.03;;
11709;SDS011;5911;51.036;6.972;2023-05-10T10:08:56;25.37;;;17.50;;
11709;SDS011;5911;51.036;6.972;2023-05-10T10:11:24;24.27;;;16.97;;
11709;SDS011;5911;51.036;6.972;2023-05-10T10:13:56;26.40;;;18.47;;
11709;SDS011;5911;51.036;6.972;2023-05-10T10:16:24;25.73;;;17.30;;
11709;SDS011;5911;51.036;6.972;2023-05-10T10:18:54;24.13;;;17.50;;
11709;SDS011;5911;51.036;6.972;2023-05-10T10:21:22;26.67;;;17.00;;
11709;SDS011;5911;51.036;6.972;2023-05-10T10:23:52;25.67;;;16.97;;
11709;SDS011;5911;51.036;6.972;2023-05-10T10:26:20;26.27;;;18.17;;
11709;SDS011;5911;51.036;6.972;2023-05-10T10:28:50;24.30;;;16.93;;
11709;SDS011;5911;51.036;6.972;2023-05-10T10:31:26;20.03;;;15.60;;
11709;SDS011;5911;51.036;6.972;2023-05-10T10:34:00;19.67;;;15.40;;
11709;SDS011;5911;51.036;6.972;2023-05-10T10:36:30;22.17;;;14.30;;
11709;SDS011;5911;51.036;6.972;2023-05-10T10:39:01;21.10;;;15.43;;
11709;SDS011;5911;51.036;6.972;2023-05-10T10:41:31;17.37;;;13.87;;
11709;SDS011;5911;51.036;6.972;2023-05-10T10:47:22;20.70;;;15.13;;
11709;SDS011;5911;51.036;6.972;2023-05-10T10:49:51;20.97;;;14.10;;
11709;SDS011;5911;51.036;6.972;2023-05-10T10:52:33;18.73;;;14.40;;
11709;SDS011;5911;51.036;6.972;2023-05-10T10:55:05;20.80;;;15.23;;
11709;SDS011;5911;51.036;6.972;2023-05-10T10:57:42;21.63;;;15.13;;
11709;SDS011;5911;51.036;6.972;2023-05-10T11:00:18;21.60;;;15.13;;
11709;SDS011;5911;51.036;6.972;2023-05-10T11:02:54;21.30;;;15.47;;
11709;SDS011;5911;51.036;6.972;2023-05-10T11:05:26;21.90;;;16.20;;
11709;SDS011;5911;51.036;6.972;2023-05-10T11:08:06;21.37;;;15.90;;
11709;SDS011;5911;51.036;6.972;2023-05-10T11:10:38;21.70;;;14.97;;
11709;SDS011;5911;51.036;6.972;2023-05-10T11:13:07;18.60;;;14.03;;
11709;SDS011;5911;51.036;6.972;2023-05-10T11:15:37;18.43;;;13.80;;
11709;SDS011;5911;51.036;6.972;2023-05-10T11:18:18;17.80;;;13.63;;
11709;SDS011;5911;51.036;6.972;2023-05-10T11:20:50;19.27;;;14.77;;
11709;SDS011;5911;51.036;6.972;2023-05-10T11:23:18;18.67;;;14.03;;
11709;SDS011;5911;51.036;6.972;2023-05-10T11:25:48;20.30;;;12.87;;
11709;SDS011;5911;51.036;6.972;2023-05-10T11:28:17;17.73;;;13.70;;
11709;SDS011;5911;51.036;6.972;2023-05-10T11:30:46;17.17;;;12.20;;
11709;SDS011;5911;51.036;6.972;2023-05-10T11:33:15;14.73;;;11.17;;
11709;SDS011;5911;51.036;6.972;2023-05-10T11:35:44;14.27;;;10.53;;
11709;SDS011;5911;51.036;6.972;2023-05-10T11:38:12;11.80;;;8.87;;
11709;SDS011;5911;51.036;6.972;2023-05-10T11:40:40;10.70;;;8.73;;
11709;SDS011;5911;51.036;6.972;2023-05-10T11:43:10;11.07;;;9.10;;
11709;SDS011;5911;51.036;6.972;2023-05-10T11:45:39;11.43;;;8.63;;
11709;SDS011;5911;51.036;6.972;2023-05-10T11:48:08;12.57;;;8.43;;
11709;SDS011;5911;51.036;6.972;2023-05-10T11:50:36;11.53;;;8.97;;
11709;SDS011;5911;51.036;6.972;2023-05-10T11:53:04;11.80;;;8.93;;
11709;SDS011;5911;51.036;6.972;2023-05-10T11:55:33;12.37;;;9.73;;
11709;SDS011;5911;51.036;6.972;2023-05-10T11:58:01;11.17;;;9.37;;
11709;SDS011;5911;51.036;6.972;2023-05-10T12:00:31;11.70;;;8.93;;
11709;SDS011;5911;51.036;6.972;2023-05-10T12:03:00;8.43;;;6.87;;
11709;SDS011;5911;51.036;6.972;2023-05-10T12:05:28;7.50;;;6.70;;
11709;SDS011;5911;51.036;6.972;2023-05-10T12:08:13;7.10;;;6.27;;
11709;SDS011;5911;51.036;6.972;2023-05-10T12:10:41;5.77;;;5.23;;
11709;SDS011;5911;51.036;6.972;2023-05-10T12:13:12;6.10;;;5.10;;
11709;SDS011;5911;51.036;6.972;2023-05-10T12:15:43;7.60;;;5.13;;
11709;SDS011;5911;51.036;6.972;2023-05-10T12:18:11;7.50;;;4.85;;
11709;SDS011;5911;51.036;6.972;2023-05-10T12:20:40;6.20;;;4.73;;
11709;SDS011;5911;51.036;6.972;2023-05-10T12:23:09;6.40;;;4.45;;
11709;SDS011;5911;51.036;6.972;2023-05-10T12:25:37;5.23;;;4.27;;
11709;SDS011;5911;51.036;6.972;2023-05-10T12:28:06;5.17;;;4.57;;
11709;SDS011;5911;51.036;6.972;2023-05-10T12:30:36;4.88;;;4.38;;
11709;SDS011;5911;51.036;6.972;2023-05-10T12:33:08;5.27;;;4.17;;
11709;SDS011;5911;51.036;6.972;2023-05-10T12:35:44;3.23;;;2.93;;
11709;SDS011;5911;51.036;6.972;2023-05-10T12:38:24;4.10;;;3.40;;
11709;SDS011;5911;51.036;6.972;2023-05-10T12:40:55;3.87;;;3.43;;
11709;SDS011;5911;51.036;6.972;2023-05-10T12:43:23;3.93;;;3.37;;
11709;SDS011;5911;51.036;6.972;2023-05-10T12:45:51;3.88;;;3.58;;
11709;SDS011;5911;51.036;6.972;2023-05-10T12:48:20;4.07;;;3.30;;
11709;SDS011;5911;51.036;6.972;2023-05-10T12:50:48;3.15;;;2.75;;
11709;SDS011;5911;51.036;6.972;2023-05-10T12:53:16;4.25;;;3.20;;
11709;SDS011;5911;51.036;6.972;2023-05-10T12:55:44;3.57;;;3.20;;
11709;SDS011;5911;51.036;6.972;2023-05-10T12:58:12;4.10;;;3.40;;
11709;SDS011;5911;51.036;6.972;2023-05-10T13:01:00;4.50;;;3.88;;
11709;SDS011;5911;51.036;6.972;2023-05-10T13:03:29;3.67;;;3.33;;
11709;SDS011;5911;51.036;6.972;2023-05-10T13:05:57;3.90;;;3.47;;
11709;SDS011;5911;51.036;6.972;2023-05-10T13:08:24;4.47;;;4.07;;
11709;SDS011;5911;51.036;6.972;2023-05-10T13:10:52;4.30;;;3.90;;
11709;SDS011;5911;51.036;6.972;2023-05-10T13:13:20;4.00;;;3.45;;
11709;SDS011;5911;51.036;6.972;2023-05-10T13:15:48;4.72;;;4.22;;
11709;SDS011;5911;51.036;6.972;2023-05-10T13:18:16;3.70;;;3.27;;
11709;SDS011;5911;51.036;6.972;2023-05-10T13:20:45;4.10;;;2.92;;
11709;SDS011;5911;51.036;6.972;2023-05-10T13:23:13;3.65;;;2.78;;
11709;SDS011;5911;51.036;6.972;2023-05-10T13:25:41;3.53;;;2.97;;
11709;SDS011;5911;51.036;6.972;2023-05-10T13:28:08;3.67;;;2.90;;
11709;SDS011;5911;51.036;6.972;2023-05-10T13:30:39;3.53;;;3.00;;
11709;SDS011;5911;51.036;6.972;2023-05-10T13:33:07;3.38;;;2.15;;
11709;SDS011;5911;51.036;6.972;2023-05-10T13:35:35;3.57;;;2.50;;
11709;SDS011;5911;51.036;6.972;2023-05-10T13:38:04;3.25;;;2.83;;
11709;SDS011;5911;51.036;6.972;2023-05-10T13:40:36;2.80;;;2.60;;
11709;SDS011;5911;51.036;6.972;2023-05-10T13:43:15;3.33;;;2.80;;
11709;SDS011;5911;51.036;6.972;2023-05-10T13:45:43;3.10;;;2.80;;
11709;SDS011;5911;51.036;6.972;2023-05-10T13:48:11;2.70;;;2.33;;
11709;SDS011;5911;51.036;6.972;2023-05-10T13:50:39;3.45;;;2.10;;
11709;SDS011;5911;51.036;6.972;2023-05-10T13:53:08;3.90;;;2.42;;
11709;SDS011;5911;51.036;6.972;2023-05-10T13:55:36;3.65;;;2.67;;
11709;SDS011;5911;51.036;6.972;2023-05-10T13:58:04;2.80;;;2.45;;
11709;SDS011;5911;51.036;6.972;2023-05-10T14:00:31;3.85;;;2.53;;
11709;SDS011;5911;51.036;6.972;2023-05-10T14:03:01;2.65;;;2.28;;
11709;SDS011;5911;51.036;6.972;2023-05-10T14:05:31;3.33;;;2.60;;
11709;SDS011;5911;51.036;6.972;2023-05-10T14:08:00;3.75;;;2.47;;
11709;SDS011;5911;51.036;6.972;2023-05-10T14:10:29;3.17;;;2.55;;
11709;SDS011;5911;51.036;6.972;2023-05-10T14:12:57;2.95;;;2.72;;
11709;SDS011;5911;51.036;6.972;2023-05-10T14:15:25;3.28;;;2.72;;
11709;SDS011;5911;51.036;6.972;2023-05-10T14:17:55;4.32;;;2.60;;
11709;SDS011;5911;51.036;6.972;2023-05-10T14:20:23;3.22;;;2.65;;
11709;SDS011;5911;51.036;6.972;2023-05-10T14:22:51;3.15;;;2.58;;
11709;SDS011;5911;51.036;6.972;2023-05-10T14:25:19;2.75;;;2.53;;
11709;SDS011;5911;51.036;6.972;2023-05-10T14:27:48;4.32;;;2.80;;
11709;SDS011;5911;51.036;6.972;2023-05-10T14:30:16;3.20;;;2.75;;
11709;SDS011;5911;51.036;6.972;2023-05-10T14:32:44;3.10;;;2.80;;
11709;SDS011;5911;51.036;6.972;2023-05-10T14:35:12;5.63;;;5.03;;
11709;SDS011;5911;51.036;6.972;2023-05-10T14:37:43;9.07;;;8.00;;
11709;SDS011;5911;51.036;6.972;2023-05-10T14:40:12;10.40;;;9.30;;
11709;SDS011;5911;51.036;6.972;2023-05-10T14:42:41;10.77;;;8.73;;
11709;SDS011;5911;51.036;6.972;2023-05-10T14:45:12;10.65;;;9.40;;
11709;SDS011;5911;51.036;6.972;2023-05-10T14:47:42;13.07;;;10.23;;
11709;SDS011;5911;51.036;6.972;2023-05-10T14:50:15;11.35;;;9.07;;
11709;SDS011;5911;51.036;6.972;2023-05-10T14:53:01;12.15;;;9.07;;
11709;SDS011;5911;51.036;6.972;2023-05-10T14:55:29;11.75;;;8.93;;
11709;SDS011;5911;51.036;6.972;2023-05-10T14:58:01;8.90;;;8.00;;
11709;SDS011;5911;51.036;6.972;2023-05-10T15:00:33;9.48;;;7.68;;
11709;SDS011;5911;51.036;6.972;2023-05-10T15:03:02;8.63;;;7.72;;
11709;SDS011;5911;51.036;6.972;2023-05-10T15:05:32;16.77;;;9.15;;
11709;SDS011;5911;51.036;6.972;2023-05-10T15:08:01;11.77;;;8.98;;
11709;SDS011;5911;51.036;6.972;2023-05-10T15:10:32;10.18;;;8.35;;